Home > Products > Valid Products > TAF

000
FTUS45 KTFX 301700
TAFHVR
TAF
KHVR 301724Z 3018/3118 24008KT P6SM SCT150
     FM310600 06007KT P6SM BKN150
     FM311000 05009KT P6SM VCSH SCT025 BKN050=



000
FTUS45 KTFX 301700
TAFGTF
TAF
KGTF 301724Z 3018/3118 22009KT P6SM SKC
     FM311000 25008KT P6SM SCT100 BKN150=



000
FTUS45 KTFX 301700
TAFLWT
TAF
KLWT 301724Z 3018/3118 VRB05KT P6SM SKC
     FM310200 14005KT P6SM SCT150=



000
FTUS45 KTFX 301700
TAFBZN
TAF
KBZN 301724Z 3018/3118 VRB05KT P6SM FEW150
     FM310100 15005KT P6SM SKC=



000
FTUS45 KTFX 301700
TAFCTB
TAF
KCTB 301724Z 3018/3118 32008KT P6SM FEW150
     FM310500 33010KT P6SM SCT050 BKN090
     FM311000 35010KT P6SM VCSH BKN040=



000
FTUS45 KTFX 301700
TAFHLN
TAF
KHLN 301724Z 3018/3118 VRB05KT P6SM SKC
     FM310100 25005KT P6SM SKC=



000
FTUS45 KTFX 301100
TAFHLN
TAF
KHLN 301121Z 3012/3112 VRB04KT P6SM FEW200=



000
FTUS45 KTFX 301100
TAFCTB
TAF
KCTB 301121Z 3012/3112 28010KT P6SM FEW200
     FM310900 33011KT P6SM SCT050 BKN090
     FM311000 35010KT P6SM VCSH OVC015=



000
FTUS45 KTFX 301100
TAFGTF
TAF
KGTF 301121Z 3012/3112 21011KT P6SM FEW200
     FM311000 25009KT P6SM SCT100 BKN150=



000
FTUS45 KTFX 301100
TAFBZN
TAF
KBZN 301121Z 3012/3112 VRB04KT P6SM SCT200=



000
FTUS45 KTFX 301100
TAFLWT
TAF
KLWT 301121Z 3012/3112 VRB05KT P6SM FEW200=



000
FTUS45 KTFX 301100
TAFHVR
TAF
KHVR 301121Z 3012/3112 24008KT P6SM FEW200
     FM310600 06007KT P6SM BKN150
     FM310900 05009KT P6SM VCSH SCT015 BKN060=



000
FTUS45 KTFX 300500
TAFGTF
TAF
KGTF 300530Z 3006/3106 21011KT P6SM SCT180=



000
FTUS45 KTFX 300500
TAFLWT
TAF
KLWT 300530Z 3006/3106 12006KT P6SM SCT180=



000
FTUS45 KTFX 300500
TAFCTB
TAF
KCTB 300530Z 3006/3106 26011KT P6SM SCT180=



000
FTUS45 KTFX 300500
TAFHLN
TAF
KHLN 300530Z 3006/3106 VRB06KT P6SM SCT180=



000
FTUS45 KTFX 300500
TAFHVR
TAF
KHVR 300530Z 3006/3106 VRB06KT P6SM SCT180
      TEMPO 3009/3013 1SM BR SCT008=



000
FTUS45 KTFX 300500
TAFBZN
TAF
KBZN 300530Z 3006/3106 16005KT P6SM SCT180=



000
FTUS45 KTFX 292300
TAFCTB
TAF
KCTB 292320Z 3000/3024 23010KT P6SM BKN150
     FM300300 27006KT P6SM SCT180=



000
FTUS45 KTFX 292300
TAFBZN
TAF
KBZN 292320Z 3000/3024 VRB06KT P6SM SCT180=



000
FTUS45 KTFX 292300
TAFHVR
TAF
KHVR 292320Z 3000/3024 VRB06KT P6SM SCT180=



000
FTUS45 KTFX 292300
TAFLWT
TAF
KLWT 292320Z 3000/3024 05006KT P6SM BKN180
     FM300300 12006KT P6SM SCT180=



000
FTUS45 KTFX 292300
TAFHLN
TAF
KHLN 292320Z 3000/3024 VRB06KT P6SM SCT180=



000
FTUS45 KTFX 292300
TAFGTF
TAF
KGTF 292320Z 3000/3024 22011KT P6SM SCT180=



000
FTUS45 KTFX 291900 AAA
TAFHVR
TAF AMD
KHVR 291924Z 2919/3018 VRB03KT P6SM SCT090
     FM300100 VRB04KT 2SM BR BKN002=



000
FTUS45 KTFX 291700
TAFHVR
TAF
KHVR 291733Z 2918/3018 VRB03KT 1/4SM FZFG BKN002
      TEMPO 2918/2920 3SM BR
     FM292000 20006KT P6SM SCT090
     FM300100 VRB04KT 2SM BR BKN002=



000
FTUS45 KTFX 291700
TAFBZN
TAF
KBZN 291733Z 2918/3018 19005KT P6SM SKC
     FM300200 VRB04KT P6SM SCT150=



000
FTUS45 KTFX 291700
TAFCTB
TAF
KCTB 291733Z 2918/3018 22006KT P6SM SKC
     FM300000 26010KT P6SM SCT150=



000
FTUS45 KTFX 291700
TAFLWT
TAF
KLWT 291733Z 2918/3018 14005KT P6SM SKC
     FM300200 22005KT P6SM SCT150=



000
FTUS45 KTFX 291700
TAFHLN
TAF
KHLN 291733Z 2918/3018 24005KT P6SM SKC
     FM300200 VRB05KT P6SM SCT150=



000
FTUS45 KTFX 291700
TAFGTF
TAF
KGTF 291733Z 2918/3018 22008KT P6SM SKC
     FM300200 22007KT P6SM FEW150=



000
FTUS45 KTFX 291500 AAC
TAFHVR
TAF AMD
KHVR 291538Z 2916/3012 VRB05KT 1/4SM FZFG BKN002
      TEMPO 2916/2918 3SM BR
     FM291800 25006KT P6SM SCT150=



000
FTUS45 KTFX 291400 AAB
TAFHVR
TAF AMD
KHVR 291430Z 2915/3012 VRB05KT 4SM BR SCT002
      TEMPO 2915/2917 3/4SM BR BKN002
     FM291800 25006KT P6SM SCT150=



000
FTUS45 KTFX 291300 AAA
TAFHVR
TAF AMD
KHVR 291358Z 2914/3012 VRB06KT P6SM VCFG SCT100
      TEMPO 2914/2915 4SM BR BKN002
     FM292300 25006KT P6SM SCT150=



000
FTUS45 KTFX 291100
TAFLWT
TAF
KLWT 291120Z 2912/3012 14006KT P6SM VCFG SCT050
      TEMPO 2912/2914 4SM BR
     FM292200 22007KT P6SM SCT150=



000
FTUS45 KTFX 291100
TAFBZN
TAF
KBZN 291120Z 2912/3012 VRB06KT P6SM VCFG SKC
     FM292000 VRB04KT P6SM SCT200=



000
FTUS45 KTFX 291100
TAFCTB
TAF
KCTB 291120Z 2912/3012 VRB06KT P6SM VCFG SKC
      TEMPO 2912/2914 4SM BR
     FM291700 24012KT P6SM SCT150=



000
FTUS45 KTFX 291100
TAFHVR
TAF
KHVR 291120Z 2912/3012 VRB06KT P6SM VCFG SCT100
      TEMPO 2912/2915 4SM BR
     FM292300 25006KT P6SM SCT150=



000
FTUS45 KTFX 291100
TAFGTF
TAF
KGTF 291120Z 2912/3012 VRB06KT P6SM VCFG SKC
     FM292200 21011KT P6SM SCT150=



000
FTUS45 KTFX 291100
TAFHLN
TAF
KHLN 291120Z 2912/3012 VRB04KT P6SM SKC
     FM292000 VRB06KT P6SM SCT200=



000
FTUS45 KTFX 290500
TAFBZN
TAF
KBZN 290531Z 2906/3006 VRB06KT P6SM SCT200=



000
FTUS45 KTFX 290500
TAFHLN
TAF
KHLN 290531Z 2906/3006 VRB06KT P6SM SKC
     FM292000 VRB06KT P6SM BKN180=



000
FTUS45 KTFX 290500
TAFCTB
TAF
KCTB 290531Z 2906/3006 VRB06KT 6SM BR SKC
      TEMPO 2909/2913 1SM BR SCT005
     FM291400 22008KT P6SM SCT180
     FM291900 24012KT P6SM BKN180=



000
FTUS45 KTFX 290500
TAFHVR
TAF
KHVR 290531Z 2906/3006 VRB06KT 6SM BR SCT180
      TEMPO 2909/2913 1SM BR SCT005
     FM291500 VRB06KT P6SM SCT180=



000
FTUS45 KTFX 290500
TAFLWT
TAF
KLWT 290531Z 2906/3006 16006KT 6SM BR SCT008 SCT050
      TEMPO 2909/2913 1SM BR BKN008
     FM291500 22006KT P6SM SCT180=



000
FTUS45 KTFX 290500
TAFGTF
TAF
KGTF 290531Z 2906/3006 VRB06KT 6SM BR SKC
      TEMPO 2909/2913 1SM BR SCT005
     FM291900 21010KT P6SM BKN180=



000
FTUS45 KTFX 290300 CCA
TAFHVR
TAF COR
KHVR 290319Z 2900/2924 22006KT P6SM BKN080
     FM290600 VRB06KT 6SM BR SCT180
      TEMPO 2909/2913 1SM BR SCT005
     FM291500 VRB06KT P6SM SCT180=



000
FTUS45 KTFX 290000 AAA
TAFHLN
TAF AMD
KHLN 290056Z 2901/2924 VRB06KT P6SM SKC=



000
FTUS45 KTFX 290000 AAA
TAFHLN
TAF AMD
KHLN 290056Z 2901/2924 VRB06KT P6SM SKC=



000
FTUS45 KTFX 282300
TAFLWT
TAF
KLWT 282336Z 2900/2924 VRB06KT P6SM SCT050 BKN080
     FM290400 VRB06KT P6SM SCT080
     FM291200 22006KT P6SM SCT180=



000
FTUS45 KTFX 282300
TAFHVR
TAF
KHVR 282336Z 2900/2924 22006KT P6SM BKN080
     FM290600 VRB06KT P6SM SCT180=



000
FTUS45 KTFX 282300
TAFBZN
TAF
KBZN 282336Z 2900/2924 VRB06KT P6SM SCT200=



000
FTUS45 KTFX 282300
TAFCTB
TAF
KCTB 282336Z 2900/2924 VRB06KT P6SM SKC
     FM291200 22008KT P6SM SCT180=



000
FTUS45 KTFX 282300
TAFHLN
TAF
KHLN 282336Z 2900/2924 26014KT P6SM SCT060
     FM290200 VRB06KT P6SM SKC=



000
FTUS45 KTFX 282300
TAFGTF
TAF
KGTF 282336Z 2900/2924 06006KT P6SM BKN080
     FM290600 20006KT P6SM SCT080 SCT180
     FM291900 21010KT P6SM BKN180=



000
FTUS45 KTFX 282200 AAA
TAFHLN
TAF AMD
KHLN 282210Z 2822/2918 24015KT P6SM SCT090
     FM290000 25011KT P6SM SKC=



000
FTUS45 KTFX 282100 AAA
TAFHVR
TAF AMD
KHVR 282103Z 2821/2918 29008KT P6SM SCT012
      TEMPO 2821/2822 BKN012
     FM282200 25008KT P6SM BKN120
     FM290200 20005KT P6SM BKN150=



000
FTUS45 KTFX 281700
TAFHLN
TAF
KHLN 281731Z 2818/2918 27010KT P6SM SCT090
     FM282000 25005KT P6SM SKC=



000
FTUS45 KTFX 281700
TAFLWT
TAF
KLWT 281731Z 2818/2918 32012KT P6SM SCT090
     FM290200 15005KT P6SM SCT150=



000
FTUS45 KTFX 281700
TAFHVR
TAF
KHVR 281731Z 2818/2918 29008KT P6SM SCT012
      TEMPO 2818/2820 5SM BR BKN012
     FM282000 25008KT P6SM BKN120
     FM290200 20005KT P6SM BKN150=



000
FTUS45 KTFX 281700
TAFCTB
TAF
KCTB 281731Z 2818/2918 34012KT P6SM SCT004 BKN050
      TEMPO 2818/2821 4SM BR BKN004
     FM282100 32010KT P6SM SCT050 BKN120
     FM290100 23007KT P6SM SCT150=



000
FTUS45 KTFX 281700
TAFBZN
TAF
KBZN 281731Z 2818/2918 VRB05KT P6SM SCT120
     FM290200 15004KT P6SM SKC=



000
FTUS45 KTFX 281700
TAFGTF
TAF
KGTF 281731Z 2818/2918 26007KT P6SM SCT100
     FM282200 19006KT P6SM SKC=



000
FTUS45 KTFX 281500 AAA
TAFHVR
TAF AMD
KHVR 281547Z 2816/2912 33008KT P6SM BKN060
      TEMPO 2816/2818 5SM BR BKN009
     FM282200 25006KT P6SM SCT060=



000
FTUS45 KTFX 281500 AAA
TAFHVR
TAF AMD
KHVR 281547Z 2816/2912 33008KT P6SM BKN060
      TEMPO 2816/2818 5SM BR BKN009
     FM282200 25006KT P6SM SCT060=



000
FTUS45 KTFX 281100 AAA
TAFCTB
TAF AMD
KCTB 281148Z 2812/2912 35014KT P6SM SKC
     FM281500 33010KT P6SM BKN060
     FM282300 25007KT P6SM SCT060=



000
FTUS45 KTFX 281100
TAFHLN
TAF
KHLN 281139Z 2812/2912 VRB06KT P6SM VCSH SCT060 BKN090
     FM282000 VRB06KT P6SM SCT150=



000
FTUS45 KTFX 281100
TAFBZN
TAF
KBZN 281139Z 2812/2912 VRB06KT P6SM VCSH SCT030 OVC050
      TEMPO 2812/2815 -SHRASN BKN030
     FM281700 VRB06KT P6SM BKN050
     FM290200 15004KT P6SM SKC=



000
FTUS45 KTFX 281100
TAFGTF
TAF
KGTF 281139Z 2812/2912 26012KT P6SM SCT060 BKN100
     FM281600 30008KT P6SM BKN060
     FM282200 21010KT P6SM SCT150=



000
FTUS45 KTFX 281100
TAFLWT
TAF
KLWT 281139Z 2812/2912 22010KT P6SM BKN100
     FM281500 32008KT P6SM BKN050
     FM282300 15006KT P6SM SKC=



000
FTUS45 KTFX 281100
TAFHVR
TAF
KHVR 281139Z 2812/2912 22010KT P6SM BKN120
     FM281400 33008KT P6SM BKN060
     FM282200 25006KT P6SM SCT060=



000
FTUS45 KTFX 281100
TAFCTB
TAF
KCTB 281139Z 2812/2912 24018KT P6SM SKC
     FM281500 33010KT P6SM BKN060
     FM282300 25007KT P6SM SCT060=



000
FTUS45 KTFX 280500
TAFHVR
TAF
KHVR 280534Z 2806/2906 22010KT P6SM SCT180
     FM281000 33008KT P6SM SCT060
     FM282100 25006KT P6SM SCT200=



000
FTUS45 KTFX 280500
TAFHLN
TAF
KHLN 280534Z 2806/2906 VRB06KT P6SM SCT100 BKN150
     FM281500 VRB06KT P6SM SCT150=



000
FTUS45 KTFX 280500
TAFCTB
TAF
KCTB 280534Z 2806/2906 24018KT P6SM BKN150
     FM280900 29012KT P6SM SCT150
     FM281400 33010KT P6SM SCT060=



000
FTUS45 KTFX 280500
TAFBZN
TAF
KBZN 280534Z 2806/2906 VRB06KT P6SM VCSH SCT035 OVC070
     FM280900 VRB06KT P6SM SCT030 OVC060
      TEMPO 2809/2812 -SHRA BKN030
     FM281200 VRB06KT P6SM BKN090=



000
FTUS45 KTFX 280500
TAFLWT
TAF
KLWT 280534Z 2806/2906 22010KT P6SM BKN150
     FM281500 29008KT P6SM OVC035
     FM290000 25006KT P6SM SCT040 SCT180=



000
FTUS45 KTFX 280500
TAFGTF
TAF
KGTF 280534Z 2806/2906 26010KT P6SM BKN100
     FM281600 30008KT P6SM BKN060
     FM290000 20006KT P6SM SCT180=



000
FTUS45 KTFX 280400 AAB
TAFCTB
TAF AMD
KCTB 280416Z 2804/2824 26022KT P6SM BKN150
     FM280900 29016KT P6SM SCT150
     FM281500 33010KT P6SM BKN060=



000
FTUS45 KTFX 280000 AAA
TAFCTB
TAF AMD
KCTB 280025Z 2800/2824 27012KT P6SM BKN150
     FM280900 29012KT P6SM SCT150
     FM281500 33010KT P6SM BKN060=



000
FTUS45 KTFX 272300
TAFBZN
TAF
KBZN 272331Z 2800/2824 VRB06KT P6SM BKN180
     FM280300 VRB06KT P6SM BKN150
     FM281800 VRB06KT P6SM SCT100 SCT180=



000
FTUS45 KTFX 272300
TAFGTF
TAF
KGTF 272331Z 2800/2824 21010KT P6SM BKN180
     FM281500 30008KT P6SM BKN060=



000
FTUS45 KTFX 272300
TAFHLN
TAF
KHLN 272331Z 2800/2824 VRB06KT P6SM BKN180
     FM280400 VRB06KT P6SM BKN150
     FM281500 VRB06KT P6SM SCT150=



000
FTUS45 KTFX 272300
TAFCTB
TAF
KCTB 272331Z 2800/2824 25015G25KT P6SM BKN150
     FM280900 29012KT P6SM SCT150
     FM281500 33010KT P6SM BKN060=



000
FTUS45 KTFX 272300
TAFLWT
TAF
KLWT 272331Z 2800/2824 VRB06KT P6SM BKN150
     FM281500 29008KT P6SM OVC035=



000
FTUS45 KTFX 272300
TAFHVR
TAF
KHVR 272331Z 2800/2824 22010KT P6SM SCT180
     FM281000 33008KT P6SM BKN035=



    US Dept of Commerce
    National Oceanic and Atmospheric Administration
    National Weather Service
    1325 East West Highway
    Silver Spring, MD 20910
    Page Author: NWS Internet Services Team
Disclaimer
Information Quality
Credits
Glossary
Privacy Policy
Freedom of Information Act (FOIA)
About Us
Career Opportunities